sensor_id;sensor_type;location;lat;lon;timestamp;P1;durP1;ratioP1;P2;durP2;ratioP2
44169;SDS011;29836;52.286;9.576;2022-12-18T00:03:47;7.93;;;2.35;;
44169;SDS011;29836;52.286;9.576;2022-12-18T00:06:13;5.40;;;2.53;;
44169;SDS011;29836;52.286;9.576;2022-12-18T00:08:40;5.55;;;2.85;;
44169;SDS011;29836;52.286;9.576;2022-12-18T00:11:07;9.43;;;2.78;;
44169;SDS011;29836;52.286;9.576;2022-12-18T00:13:35;4.22;;;2.78;;
44169;SDS011;29836;52.286;9.576;2022-12-18T00:16:03;6.00;;;2.92;;
44169;SDS011;29836;52.286;9.576;2022-12-18T00:18:30;4.43;;;2.83;;
44169;SDS011;29836;52.286;9.576;2022-12-18T00:21:00;6.10;;;3.10;;
44169;SDS011;29836;52.286;9.576;2022-12-18T00:23:30;12.20;;;2.75;;
44169;SDS011;29836;52.286;9.576;2022-12-18T00:25:59;8.75;;;2.80;;
44169;SDS011;29836;52.286;9.576;2022-12-18T00:28:30;7.63;;;3.15;;
44169;SDS011;29836;52.286;9.576;2022-12-18T00:31:02;4.45;;;2.13;;
44169;SDS011;29836;52.286;9.576;2022-12-18T00:33:33;8.48;;;3.38;;
44169;SDS011;29836;52.286;9.576;2022-12-18T00:36:02;6.80;;;2.92;;
44169;SDS011;29836;52.286;9.576;2022-12-18T00:38:29;4.57;;;2.55;;
44169;SDS011;29836;52.286;9.576;2022-12-18T00:40:54;4.72;;;3.13;;
44169;SDS011;29836;52.286;9.576;2022-12-18T00:43:20;5.70;;;2.92;;
44169;SDS011;29836;52.286;9.576;2022-12-18T00:45:46;5.05;;;2.35;;
44169;SDS011;29836;52.286;9.576;2022-12-18T00:48:11;5.88;;;2.25;;
44169;SDS011;29836;52.286;9.576;2022-12-18T00:50:37;7.25;;;3.65;;
44169;SDS011;29836;52.286;9.576;2022-12-18T00:53:03;3.38;;;2.22;;
44169;SDS011;29836;52.286;9.576;2022-12-18T00:55:28;11.38;;;2.85;;
44169;SDS011;29836;52.286;9.576;2022-12-18T00:57:54;6.97;;;2.95;;
44169;SDS011;29836;52.286;9.576;2022-12-18T01:00:20;6.05;;;2.50;;
44169;SDS011;29836;52.286;9.576;2022-12-18T01:02:45;4.65;;;2.22;;
44169;SDS011;29836;52.286;9.576;2022-12-18T01:05:11;5.18;;;2.78;;
44169;SDS011;29836;52.286;9.576;2022-12-18T01:07:38;6.35;;;2.25;;
44169;SDS011;29836;52.286;9.576;2022-12-18T01:10:04;4.35;;;2.33;;
44169;SDS011;29836;52.286;9.576;2022-12-18T01:12:31;8.80;;;3.40;;
44169;SDS011;29836;52.286;9.576;2022-12-18T01:14:57;8.07;;;2.63;;
44169;SDS011;29836;52.286;9.576;2022-12-18T01:17:23;6.07;;;2.65;;
44169;SDS011;29836;52.286;9.576;2022-12-18T01:19:49;4.65;;;2.78;;
44169;SDS011;29836;52.286;9.576;2022-12-18T01:22:14;9.95;;;3.72;;
44169;SDS011;29836;52.286;9.576;2022-12-18T01:24:40;10.52;;;3.42;;
44169;SDS011;29836;52.286;9.576;2022-12-18T01:27:06;8.60;;;2.47;;
44169;SDS011;29836;52.286;9.576;2022-12-18T01:29:31;5.05;;;2.78;;
44169;SDS011;29836;52.286;9.576;2022-12-18T01:31:57;7.57;;;2.33;;
44169;SDS011;29836;52.286;9.576;2022-12-18T01:34:23;8.55;;;3.53;;
44169;SDS011;29836;52.286;9.576;2022-12-18T01:36:49;7.50;;;3.25;;
44169;SDS011;29836;52.286;9.576;2022-12-18T01:39:17;3.85;;;1.75;;
44169;SDS011;29836;52.286;9.576;2022-12-18T01:41:43;7.95;;;1.98;;
44169;SDS011;29836;52.286;9.576;2022-12-18T01:49:51;3.22;;;2.20;;
44169;SDS011;29836;52.286;9.576;2022-12-18T01:52:17;4.20;;;2.03;;
44169;SDS011;29836;52.286;9.576;2022-12-18T01:54:44;6.25;;;2.70;;
44169;SDS011;29836;52.286;9.576;2022-12-18T01:57:11;5.72;;;2.67;;
44169;SDS011;29836;52.286;9.576;2022-12-18T01:59:37;5.20;;;2.03;;
44169;SDS011;29836;52.286;9.576;2022-12-18T02:02:05;6.57;;;2.38;;
44169;SDS011;29836;52.286;9.576;2022-12-18T02:04:32;4.78;;;2.13;;
44169;SDS011;29836;52.286;9.576;2022-12-18T02:07:07;4.00;;;2.03;;
44169;SDS011;29836;52.286;9.576;2022-12-18T02:12:59;5.13;;;1.80;;
44169;SDS011;29836;52.286;9.576;2022-12-18T02:18:30;5.78;;;3.08;;
44169;SDS011;29836;52.286;9.576;2022-12-18T02:24:24;6.40;;;2.90;;
44169;SDS011;29836;52.286;9.576;2022-12-18T02:27:05;5.53;;;2.30;;
44169;SDS011;29836;52.286;9.576;2022-12-18T02:29:38;11.63;;;2.92;;
44169;SDS011;29836;52.286;9.576;2022-12-18T02:32:09;5.65;;;2.47;;
44169;SDS011;29836;52.286;9.576;2022-12-18T02:34:39;4.10;;;2.30;;
44169;SDS011;29836;52.286;9.576;2022-12-18T02:37:06;3.28;;;2.05;;
44169;SDS011;29836;52.286;9.576;2022-12-18T02:39:36;5.88;;;2.60;;
44169;SDS011;29836;52.286;9.576;2022-12-18T02:42:04;5.43;;;2.97;;
44169;SDS011;29836;52.286;9.576;2022-12-18T02:44:33;8.18;;;2.95;;
44169;SDS011;29836;52.286;9.576;2022-12-18T02:47:00;6.07;;;2.83;;
44169;SDS011;29836;52.286;9.576;2022-12-18T02:57:55;12.35;;;3.05;;
44169;SDS011;29836;52.286;9.576;2022-12-18T03:00:48;6.82;;;3.47;;
44169;SDS011;29836;52.286;9.576;2022-12-18T03:06:07;8.20;;;3.08;;
44169;SDS011;29836;52.286;9.576;2022-12-18T03:08:38;10.52;;;3.40;;
44169;SDS011;29836;52.286;9.576;2022-12-18T03:11:08;8.05;;;2.78;;
44169;SDS011;29836;52.286;9.576;2022-12-18T03:13:46;8.18;;;3.45;;
44169;SDS011;29836;52.286;9.576;2022-12-18T03:16:22;4.32;;;2.22;;
44169;SDS011;29836;52.286;9.576;2022-12-18T03:18:56;9.23;;;3.58;;
44169;SDS011;29836;52.286;9.576;2022-12-18T03:21:29;7.78;;;3.40;;
44169;SDS011;29836;52.286;9.576;2022-12-18T03:24:01;3.97;;;2.58;;
44169;SDS011;29836;52.286;9.576;2022-12-18T03:26:32;5.95;;;3.50;;
44169;SDS011;29836;52.286;9.576;2022-12-18T03:29:01;7.45;;;2.88;;
44169;SDS011;29836;52.286;9.576;2022-12-18T03:31:30;5.88;;;3.42;;
44169;SDS011;29836;52.286;9.576;2022-12-18T03:33:58;4.80;;;3.00;;
44169;SDS011;29836;52.286;9.576;2022-12-18T03:36:30;6.43;;;2.85;;
44169;SDS011;29836;52.286;9.576;2022-12-18T03:38:55;13.73;;;3.22;;
44169;SDS011;29836;52.286;9.576;2022-12-18T03:41:42;4.78;;;2.92;;
44169;SDS011;29836;52.286;9.576;2022-12-18T03:52:37;10.35;;;2.78;;
44169;SDS011;29836;52.286;9.576;2022-12-18T03:55:10;6.93;;;3.20;;
44169;SDS011;29836;52.286;9.576;2022-12-18T03:57:37;6.13;;;2.60;;
44169;SDS011;29836;52.286;9.576;2022-12-18T04:00:08;8.07;;;3.72;;
44169;SDS011;29836;52.286;9.576;2022-12-18T04:02:37;6.25;;;2.42;;
44169;SDS011;29836;52.286;9.576;2022-12-18T04:05:06;7.57;;;3.67;;
44169;SDS011;29836;52.286;9.576;2022-12-18T04:07:34;6.47;;;3.40;;
44169;SDS011;29836;52.286;9.576;2022-12-18T04:10:01;6.22;;;3.22;;
44169;SDS011;29836;52.286;9.576;2022-12-18T04:12:28;6.60;;;3.00;;
44169;SDS011;29836;52.286;9.576;2022-12-18T04:14:54;7.28;;;2.55;;
44169;SDS011;29836;52.286;9.576;2022-12-18T04:17:20;11.88;;;3.28;;
44169;SDS011;29836;52.286;9.576;2022-12-18T04:19:46;6.63;;;2.20;;
44169;SDS011;29836;52.286;9.576;2022-12-18T04:22:12;10.48;;;3.13;;
44169;SDS011;29836;52.286;9.576;2022-12-18T04:24:37;10.43;;;3.10;;
44169;SDS011;29836;52.286;9.576;2022-12-18T04:27:03;10.98;;;4.03;;
44169;SDS011;29836;52.286;9.576;2022-12-18T04:29:29;5.10;;;2.53;;
44169;SDS011;29836;52.286;9.576;2022-12-18T04:31:54;8.70;;;3.65;;
44169;SDS011;29836;52.286;9.576;2022-12-18T04:34:20;8.25;;;3.40;;
44169;SDS011;29836;52.286;9.576;2022-12-18T04:36:46;6.75;;;2.97;;
44169;SDS011;29836;52.286;9.576;2022-12-18T04:39:11;6.03;;;2.50;;
44169;SDS011;29836;52.286;9.576;2022-12-18T04:41:37;5.03;;;2.67;;
44169;SDS011;29836;52.286;9.576;2022-12-18T04:44:03;6.20;;;2.97;;
44169;SDS011;29836;52.286;9.576;2022-12-18T04:46:29;7.07;;;3.30;;
44169;SDS011;29836;52.286;9.576;2022-12-18T04:48:55;8.25;;;2.95;;
44169;SDS011;29836;52.286;9.576;2022-12-18T04:51:20;9.60;;;3.70;;
44169;SDS011;29836;52.286;9.576;2022-12-18T04:53:46;6.78;;;3.33;;
44169;SDS011;29836;52.286;9.576;2022-12-18T04:56:12;5.53;;;2.25;;
44169;SDS011;29836;52.286;9.576;2022-12-18T04:58:40;7.38;;;3.00;;
44169;SDS011;29836;52.286;9.576;2022-12-18T05:01:07;6.35;;;3.28;;
44169;SDS011;29836;52.286;9.576;2022-12-18T05:03:34;10.02;;;3.60;;
44169;SDS011;29836;52.286;9.576;2022-12-18T05:06:00;9.48;;;3.13;;
44169;SDS011;29836;52.286;9.576;2022-12-18T05:08:26;5.10;;;2.58;;
44169;SDS011;29836;52.286;9.576;2022-12-18T05:10:59;8.00;;;2.90;;
44169;SDS011;29836;52.286;9.576;2022-12-18T05:13:25;6.05;;;2.55;;
44169;SDS011;29836;52.286;9.576;2022-12-18T05:15:52;3.97;;;2.30;;
44169;SDS011;29836;52.286;9.576;2022-12-18T05:18:17;7.22;;;3.03;;
44169;SDS011;29836;52.286;9.576;2022-12-18T05:20:43;5.55;;;3.13;;
44169;SDS011;29836;52.286;9.576;2022-12-18T05:23:09;7.38;;;2.78;;
44169;SDS011;29836;52.286;9.576;2022-12-18T05:25:34;4.78;;;2.20;;
44169;SDS011;29836;52.286;9.576;2022-12-18T05:28:00;5.70;;;2.45;;
44169;SDS011;29836;52.286;9.576;2022-12-18T05:30:25;8.65;;;2.42;;
44169;SDS011;29836;52.286;9.576;2022-12-18T05:32:52;10.77;;;2.97;;
44169;SDS011;29836;52.286;9.576;2022-12-18T05:35:18;5.57;;;3.22;;
44169;SDS011;29836;52.286;9.576;2022-12-18T05:37:43;6.60;;;3.15;;
44169;SDS011;29836;52.286;9.576;2022-12-18T05:40:09;10.25;;;3.38;;
44169;SDS011;29836;52.286;9.576;2022-12-18T05:42:35;6.35;;;3.83;;
44169;SDS011;29836;52.286;9.576;2022-12-18T05:45:01;5.13;;;2.50;;
44169;SDS011;29836;52.286;9.576;2022-12-18T05:47:27;9.20;;;3.30;;
44169;SDS011;29836;52.286;9.576;2022-12-18T05:49:53;7.05;;;2.40;;
44169;SDS011;29836;52.286;9.576;2022-12-18T05:52:19;7.10;;;3.15;;
44169;SDS011;29836;52.286;9.576;2022-12-18T05:54:45;6.30;;;2.30;;
44169;SDS011;29836;52.286;9.576;2022-12-18T05:57:10;3.05;;;1.58;;
44169;SDS011;29836;52.286;9.576;2022-12-18T05:59:36;4.32;;;2.47;;
44169;SDS011;29836;52.286;9.576;2022-12-18T06:02:01;6.65;;;2.55;;
44169;SDS011;29836;52.286;9.576;2022-12-18T06:04:27;7.05;;;2.85;;
44169;SDS011;29836;52.286;9.576;2022-12-18T06:06:53;4.15;;;2.03;;
44169;SDS011;29836;52.286;9.576;2022-12-18T06:09:19;7.10;;;2.47;;
44169;SDS011;29836;52.286;9.576;2022-12-18T06:11:45;5.10;;;1.85;;
44169;SDS011;29836;52.286;9.576;2022-12-18T06:14:10;5.72;;;3.30;;
44169;SDS011;29836;52.286;9.576;2022-12-18T06:16:36;6.30;;;3.30;;
44169;SDS011;29836;52.286;9.576;2022-12-18T06:19:02;9.57;;;2.53;;
44169;SDS011;29836;52.286;9.576;2022-12-18T06:21:29;5.43;;;2.40;;
44169;SDS011;29836;52.286;9.576;2022-12-18T06:23:55;5.40;;;2.13;;
44169;SDS011;29836;52.286;9.576;2022-12-18T06:26:21;8.68;;;3.63;;
44169;SDS011;29836;52.286;9.576;2022-12-18T06:28:47;6.50;;;2.53;;
44169;SDS011;29836;52.286;9.576;2022-12-18T06:31:12;5.65;;;3.50;;
44169;SDS011;29836;52.286;9.576;2022-12-18T06:33:38;5.72;;;2.50;;
44169;SDS011;29836;52.286;9.576;2022-12-18T06:36:13;4.13;;;2.17;;
44169;SDS011;29836;52.286;9.576;2022-12-18T06:38:40;7.93;;;3.25;;
44169;SDS011;29836;52.286;9.576;2022-12-18T06:41:11;3.20;;;1.92;;
44169;SDS011;29836;52.286;9.576;2022-12-18T06:43:41;7.30;;;3.53;;
44169;SDS011;29836;52.286;9.576;2022-12-18T06:46:07;4.00;;;2.05;;
44169;SDS011;29836;52.286;9.576;2022-12-18T06:48:33;4.85;;;3.22;;
44169;SDS011;29836;52.286;9.576;2022-12-18T06:50:59;8.82;;;3.35;;
44169;SDS011;29836;52.286;9.576;2022-12-18T06:53:25;5.47;;;2.67;;
44169;SDS011;29836;52.286;9.576;2022-12-18T06:55:51;5.00;;;2.78;;
44169;SDS011;29836;52.286;9.576;2022-12-18T06:58:16;6.97;;;2.65;;
44169;SDS011;29836;52.286;9.576;2022-12-18T07:00:42;4.30;;;2.20;;
44169;SDS011;29836;52.286;9.576;2022-12-18T07:03:08;5.45;;;2.80;;
44169;SDS011;29836;52.286;9.576;2022-12-18T07:05:33;6.60;;;3.08;;
44169;SDS011;29836;52.286;9.576;2022-12-18T07:08:00;8.65;;;3.30;;
44169;SDS011;29836;52.286;9.576;2022-12-18T07:10:25;7.47;;;3.80;;
44169;SDS011;29836;52.286;9.576;2022-12-18T07:12:51;4.38;;;2.72;;
44169;SDS011;29836;52.286;9.576;2022-12-18T07:15:17;10.80;;;2.78;;
44169;SDS011;29836;52.286;9.576;2022-12-18T07:17:42;9.60;;;3.38;;
44169;SDS011;29836;52.286;9.576;2022-12-18T07:20:08;7.53;;;2.78;;
44169;SDS011;29836;52.286;9.576;2022-12-18T07:22:34;7.53;;;2.40;;
44169;SDS011;29836;52.286;9.576;2022-12-18T07:25:00;5.63;;;3.33;;
44169;SDS011;29836;52.286;9.576;2022-12-18T07:27:25;7.50;;;3.38;;
44169;SDS011;29836;52.286;9.576;2022-12-18T07:29:51;5.28;;;2.75;;
44169;SDS011;29836;52.286;9.576;2022-12-18T07:32:16;4.22;;;2.53;;
44169;SDS011;29836;52.286;9.576;2022-12-18T07:34:42;4.95;;;2.15;;
44169;SDS011;29836;52.286;9.576;2022-12-18T07:37:07;8.95;;;3.35;;
44169;SDS011;29836;52.286;9.576;2022-12-18T07:39:33;7.95;;;2.75;;
44169;SDS011;29836;52.286;9.576;2022-12-18T07:41:59;6.20;;;3.05;;
44169;SDS011;29836;52.286;9.576;2022-12-18T07:44:57;4.97;;;3.17;;
44169;SDS011;29836;52.286;9.576;2022-12-18T07:47:27;7.93;;;3.25;;
44169;SDS011;29836;52.286;9.576;2022-12-18T07:49:53;4.97;;;2.63;;
44169;SDS011;29836;52.286;9.576;2022-12-18T07:52:18;6.88;;;3.33;;
44169;SDS011;29836;52.286;9.576;2022-12-18T07:54:44;6.30;;;3.72;;
44169;SDS011;29836;52.286;9.576;2022-12-18T07:57:10;6.13;;;3.15;;
44169;SDS011;29836;52.286;9.576;2022-12-18T07:59:36;7.57;;;2.88;;
44169;SDS011;29836;52.286;9.576;2022-12-18T08:02:02;5.75;;;2.58;;
44169;SDS011;29836;52.286;9.576;2022-12-18T08:04:27;5.10;;;2.75;;
44169;SDS011;29836;52.286;9.576;2022-12-18T08:06:53;5.68;;;2.13;;
44169;SDS011;29836;52.286;9.576;2022-12-18T08:09:19;8.00;;;3.25;;
44169;SDS011;29836;52.286;9.576;2022-12-18T08:11:45;6.43;;;2.75;;
44169;SDS011;29836;52.286;9.576;2022-12-18T08:14:10;6.47;;;3.72;;
44169;SDS011;29836;52.286;9.576;2022-12-18T08:16:36;8.60;;;3.05;;
44169;SDS011;29836;52.286;9.576;2022-12-18T08:19:02;7.38;;;3.83;;
44169;SDS011;29836;52.286;9.576;2022-12-18T08:21:29;8.02;;;3.45;;
44169;SDS011;29836;52.286;9.576;2022-12-18T08:23:56;10.40;;;3.22;;
44169;SDS011;29836;52.286;9.576;2022-12-18T08:26:28;13.27;;;3.13;;
44169;SDS011;29836;52.286;9.576;2022-12-18T08:28:55;4.90;;;2.85;;
44169;SDS011;29836;52.286;9.576;2022-12-18T08:31:22;7.47;;;2.30;;
44169;SDS011;29836;52.286;9.576;2022-12-18T08:33:50;5.07;;;2.03;;
44169;SDS011;29836;52.286;9.576;2022-12-18T08:36:27;7.50;;;2.72;;
44169;SDS011;29836;52.286;9.576;2022-12-18T08:39:17;4.03;;;2.10;;
44169;SDS011;29836;52.286;9.576;2022-12-18T08:41:42;6.85;;;2.92;;
44169;SDS011;29836;52.286;9.576;2022-12-18T08:44:28;4.90;;;2.75;;
44169;SDS011;29836;52.286;9.576;2022-12-18T08:47:04;5.68;;;3.50;;
44169;SDS011;29836;52.286;9.576;2022-12-18T08:49:31;5.05;;;3.17;;
44169;SDS011;29836;52.286;9.576;2022-12-18T08:51:58;6.50;;;2.80;;
44169;SDS011;29836;52.286;9.576;2022-12-18T08:54:23;5.82;;;2.67;;
44169;SDS011;29836;52.286;9.576;2022-12-18T08:56:49;6.43;;;2.40;;
44169;SDS011;29836;52.286;9.576;2022-12-18T08:59:16;4.53;;;2.30;;
44169;SDS011;29836;52.286;9.576;2022-12-18T09:01:42;7.32;;;3.38;;
44169;SDS011;29836;52.286;9.576;2022-12-18T09:04:11;7.63;;;3.22;;
44169;SDS011;29836;52.286;9.576;2022-12-18T09:06:37;8.10;;;2.97;;
44169;SDS011;29836;52.286;9.576;2022-12-18T09:09:03;7.80;;;3.40;;
44169;SDS011;29836;52.286;9.576;2022-12-18T09:11:29;8.25;;;3.45;;
44169;SDS011;29836;52.286;9.576;2022-12-18T09:13:57;8.82;;;3.45;;
44169;SDS011;29836;52.286;9.576;2022-12-18T09:16:24;5.15;;;2.45;;
44169;SDS011;29836;52.286;9.576;2022-12-18T09:18:50;7.20;;;3.28;;
44169;SDS011;29836;52.286;9.576;2022-12-18T09:21:17;5.30;;;2.50;;
44169;SDS011;29836;52.286;9.576;2022-12-18T09:23:48;7.75;;;3.35;;
44169;SDS011;29836;52.286;9.576;2022-12-18T09:26:15;3.80;;;2.47;;
44169;SDS011;29836;52.286;9.576;2022-12-18T09:28:41;6.45;;;2.83;;
44169;SDS011;29836;52.286;9.576;2022-12-18T09:31:07;6.07;;;2.75;;
44169;SDS011;29836;52.286;9.576;2022-12-18T09:33:34;7.05;;;2.72;;
44169;SDS011;29836;52.286;9.576;2022-12-18T09:36:02;4.82;;;2.67;;
44169;SDS011;29836;52.286;9.576;2022-12-18T09:38:29;4.28;;;2.05;;
44169;SDS011;29836;52.286;9.576;2022-12-18T09:40:57;6.82;;;2.72;;
44169;SDS011;29836;52.286;9.576;2022-12-18T09:43:32;4.47;;;3.03;;
44169;SDS011;29836;52.286;9.576;2022-12-18T09:46:07;5.25;;;3.47;;
44169;SDS011;29836;52.286;9.576;2022-12-18T09:48:40;5.40;;;2.78;;
44169;SDS011;29836;52.286;9.576;2022-12-18T09:51:13;7.50;;;3.55;;
44169;SDS011;29836;52.286;9.576;2022-12-18T09:53:44;6.68;;;2.92;;
44169;SDS011;29836;52.286;9.576;2022-12-18T09:56:22;6.72;;;2.22;;
44169;SDS011;29836;52.286;9.576;2022-12-18T09:58:55;6.82;;;3.42;;
44169;SDS011;29836;52.286;9.576;2022-12-18T10:01:24;7.13;;;2.80;;
44169;SDS011;29836;52.286;9.576;2022-12-18T10:03:51;7.68;;;2.53;;
44169;SDS011;29836;52.286;9.576;2022-12-18T10:06:20;11.02;;;3.20;;
44169;SDS011;29836;52.286;9.576;2022-12-18T10:12:02;4.78;;;2.50;;
44169;SDS011;29836;52.286;9.576;2022-12-18T10:20:02;7.47;;;2.90;;
44169;SDS011;29836;52.286;9.576;2022-12-18T10:28:21;6.75;;;3.05;;
44169;SDS011;29836;52.286;9.576;2022-12-18T10:30:48;8.18;;;2.40;;
44169;SDS011;29836;52.286;9.576;2022-12-18T10:33:15;6.65;;;3.28;;
44169;SDS011;29836;52.286;9.576;2022-12-18T10:35:42;8.88;;;2.63;;
44169;SDS011;29836;52.286;9.576;2022-12-18T10:40:57;6.10;;;2.30;;
44169;SDS011;29836;52.286;9.576;2022-12-18T10:43:28;6.00;;;2.50;;
44169;SDS011;29836;52.286;9.576;2022-12-18T10:48:24;4.72;;;2.28;;
44169;SDS011;29836;52.286;9.576;2022-12-18T10:50:50;4.40;;;2.13;;
44169;SDS011;29836;52.286;9.576;2022-12-18T10:53:23;7.40;;;2.60;;
44169;SDS011;29836;52.286;9.576;2022-12-18T10:55:52;5.60;;;2.83;;
44169;SDS011;29836;52.286;9.576;2022-12-18T10:58:23;6.22;;;2.38;;
44169;SDS011;29836;52.286;9.576;2022-12-18T11:01:30;6.95;;;2.42;;
44169;SDS011;29836;52.286;9.576;2022-12-18T11:06:21;6.65;;;2.28;;
44169;SDS011;29836;52.286;9.576;2022-12-18T11:08:59;4.22;;;2.58;;
44169;SDS011;29836;52.286;9.576;2022-12-18T11:11:29;4.78;;;2.42;;
44169;SDS011;29836;52.286;9.576;2022-12-18T11:16:28;6.13;;;3.13;;
44169;SDS011;29836;52.286;9.576;2022-12-18T11:19:17;4.30;;;2.45;;
44169;SDS011;29836;52.286;9.576;2022-12-18T11:22:02;3.92;;;1.95;;
44169;SDS011;29836;52.286;9.576;2022-12-18T11:24:49;7.40;;;2.78;;
44169;SDS011;29836;52.286;9.576;2022-12-18T11:27:28;5.60;;;1.75;;
44169;SDS011;29836;52.286;9.576;2022-12-18T11:30:07;4.53;;;2.00;;
44169;SDS011;29836;52.286;9.576;2022-12-18T11:32:45;3.53;;;1.65;;
44169;SDS011;29836;52.286;9.576;2022-12-18T11:35:19;5.20;;;2.35;;
44169;SDS011;29836;52.286;9.576;2022-12-18T11:38:02;4.25;;;2.13;;
44169;SDS011;29836;52.286;9.576;2022-12-18T11:40:55;4.20;;;2.00;;
44169;SDS011;29836;52.286;9.576;2022-12-18T11:43:47;5.85;;;2.13;;
44169;SDS011;29836;52.286;9.576;2022-12-18T11:46:16;5.00;;;1.85;;
44169;SDS011;29836;52.286;9.576;2022-12-18T11:48:50;5.20;;;2.03;;
44169;SDS011;29836;52.286;9.576;2022-12-18T11:51:35;3.35;;;1.77;;
44169;SDS011;29836;52.286;9.576;2022-12-18T11:54:09;4.45;;;2.35;;
44169;SDS011;29836;52.286;9.576;2022-12-18T11:56:49;4.68;;;2.40;;
44169;SDS011;29836;52.286;9.576;2022-12-18T11:59:24;5.88;;;2.08;;
44169;SDS011;29836;52.286;9.576;2022-12-18T12:02:21;3.70;;;1.48;;
44169;SDS011;29836;52.286;9.576;2022-12-18T12:07:51;3.97;;;1.80;;
44169;SDS011;29836;52.286;9.576;2022-12-18T12:13:28;4.78;;;2.45;;
44169;SDS011;29836;52.286;9.576;2022-12-18T12:21:40;4.55;;;1.73;;
44169;SDS011;29836;52.286;9.576;2022-12-18T12:24:26;4.40;;;1.58;;
44169;SDS011;29836;52.286;9.576;2022-12-18T12:30:18;6.22;;;2.47;;
44169;SDS011;29836;52.286;9.576;2022-12-18T12:33:06;5.05;;;1.80;;
44169;SDS011;29836;52.286;9.576;2022-12-18T12:38:42;4.28;;;2.00;;
44169;SDS011;29836;52.286;9.576;2022-12-18T12:44:03;2.40;;;1.70;;
44169;SDS011;29836;52.286;9.576;2022-12-18T12:46:32;2.75;;;1.63;;
44169;SDS011;29836;52.286;9.576;2022-12-18T12:49:02;3.03;;;1.92;;
44169;SDS011;29836;52.286;9.576;2022-12-18T12:51:31;6.55;;;1.77;;
44169;SDS011;29836;52.286;9.576;2022-12-18T12:54:02;4.50;;;1.58;;
44169;SDS011;29836;52.286;9.576;2022-12-18T12:59:19;7.47;;;2.13;;
44169;SDS011;29836;52.286;9.576;2022-12-18T13:02:06;5.50;;;1.58;;
44169;SDS011;29836;52.286;9.576;2022-12-18T13:04:50;9.70;;;1.38;;
44169;SDS011;29836;52.286;9.576;2022-12-18T13:07:37;2.03;;;1.60;;
44169;SDS011;29836;52.286;9.576;2022-12-18T13:13:29;2.20;;;1.10;;
44169;SDS011;29836;52.286;9.576;2022-12-18T13:15:38;4.78;;;1.83;;
44169;SDS011;29836;52.286;9.576;2022-12-18T13:23:00;2.85;;;1.73;;
44169;SDS011;29836;52.286;9.576;2022-12-18T13:25:43;3.08;;;1.50;;
44169;SDS011;29836;52.286;9.576;2022-12-18T13:28:11;2.65;;;1.60;;
44169;SDS011;29836;52.286;9.576;2022-12-18T13:30:48;2.38;;;1.55;;
44169;SDS011;29836;52.286;9.576;2022-12-18T13:38:23;6.88;;;1.90;;
44169;SDS011;29836;52.286;9.576;2022-12-18T13:43:49;3.85;;;1.40;;
44169;SDS011;29836;52.286;9.576;2022-12-18T13:49:02;4.05;;;1.75;;
44169;SDS011;29836;52.286;9.576;2022-12-18T13:51:32;4.93;;;1.90;;
44169;SDS011;29836;52.286;9.576;2022-12-18T13:54:02;3.63;;;1.75;;
44169;SDS011;29836;52.286;9.576;2022-12-18T13:56:43;3.33;;;1.73;;
44169;SDS011;29836;52.286;9.576;2022-12-18T13:59:14;4.35;;;2.25;;
44169;SDS011;29836;52.286;9.576;2022-12-18T14:01:46;6.25;;;2.20;;
44169;SDS011;29836;52.286;9.576;2022-12-18T14:04:19;4.47;;;1.60;;
44169;SDS011;29836;52.286;9.576;2022-12-18T14:06:51;2.95;;;1.20;;
44169;SDS011;29836;52.286;9.576;2022-12-18T14:09:28;2.88;;;1.65;;
44169;SDS011;29836;52.286;9.576;2022-12-18T14:11:56;3.92;;;1.75;;
44169;SDS011;29836;52.286;9.576;2022-12-18T14:14:55;1.95;;;1.30;;
44169;SDS011;29836;52.286;9.576;2022-12-18T14:17:20;2.28;;;1.42;;
44169;SDS011;29836;52.286;9.576;2022-12-18T14:19:48;3.55;;;1.50;;
44169;SDS011;29836;52.286;9.576;2022-12-18T14:22:19;3.92;;;1.83;;
44169;SDS011;29836;52.286;9.576;2022-12-18T14:25:06;2.90;;;1.63;;
44169;SDS011;29836;52.286;9.576;2022-12-18T14:27:52;2.33;;;1.15;;
44169;SDS011;29836;52.286;9.576;2022-12-18T14:30:28;2.83;;;1.77;;
44169;SDS011;29836;52.286;9.576;2022-12-18T14:33:03;2.90;;;1.80;;
44169;SDS011;29836;52.286;9.576;2022-12-18T14:35:42;2.13;;;1.13;;
44169;SDS011;29836;52.286;9.576;2022-12-18T14:41:14;3.72;;;1.67;;
44169;SDS011;29836;52.286;9.576;2022-12-18T14:43:40;1.15;;;0.98;;
44169;SDS011;29836;52.286;9.576;2022-12-18T14:48:57;2.42;;;1.10;;
44169;SDS011;29836;52.286;9.576;2022-12-18T14:51:28;5.22;;;1.00;;
44169;SDS011;29836;52.286;9.576;2022-12-18T14:54:00;3.97;;;1.77;;
44169;SDS011;29836;52.286;9.576;2022-12-18T14:56:32;3.50;;;1.42;;
44169;SDS011;29836;52.286;9.576;2022-12-18T15:01:56;1.40;;;0.70;;
44169;SDS011;29836;52.286;9.576;2022-12-18T15:04:27;1.55;;;0.80;;
44169;SDS011;29836;52.286;9.576;2022-12-18T15:09:36;4.10;;;1.40;;
44169;SDS011;29836;52.286;9.576;2022-12-18T15:12:03;3.75;;;1.55;;
44169;SDS011;29836;52.286;9.576;2022-12-18T15:16:55;3.85;;;1.45;;
44169;SDS011;29836;52.286;9.576;2022-12-18T15:19:25;2.67;;;1.40;;
44169;SDS011;29836;52.286;9.576;2022-12-18T15:22:02;2.70;;;1.58;;
44169;SDS011;29836;52.286;9.576;2022-12-18T15:24:30;4.45;;;1.30;;
44169;SDS011;29836;52.286;9.576;2022-12-18T15:26:57;3.75;;;2.05;;
44169;SDS011;29836;52.286;9.576;2022-12-18T15:29:24;3.53;;;1.10;;
44169;SDS011;29836;52.286;9.576;2022-12-18T15:34:30;3.83;;;1.50;;
44169;SDS011;29836;52.286;9.576;2022-12-18T15:36:57;5.70;;;2.25;;
44169;SDS011;29836;52.286;9.576;2022-12-18T15:39:22;2.92;;;1.02;;
44169;SDS011;29836;52.286;9.576;2022-12-18T15:41:48;3.90;;;1.52;;
44169;SDS011;29836;52.286;9.576;2022-12-18T15:44:32;2.42;;;1.45;;
44169;SDS011;29836;52.286;9.576;2022-12-18T15:46:58;5.05;;;1.98;;
44169;SDS011;29836;52.286;9.576;2022-12-18T15:49:24;3.72;;;1.40;;
44169;SDS011;29836;52.286;9.576;2022-12-18T15:51:51;3.03;;;1.38;;
44169;SDS011;29836;52.286;9.576;2022-12-18T15:54:19;2.08;;;1.10;;
44169;SDS011;29836;52.286;9.576;2022-12-18T15:57:07;1.80;;;1.35;;
44169;SDS011;29836;52.286;9.576;2022-12-18T15:59:47;3.95;;;2.00;;
44169;SDS011;29836;52.286;9.576;2022-12-18T16:02:14;3.53;;;1.38;;
44169;SDS011;29836;52.286;9.576;2022-12-18T16:04:42;4.28;;;1.50;;
44169;SDS011;29836;52.286;9.576;2022-12-18T16:07:08;2.47;;;1.27;;
44169;SDS011;29836;52.286;9.576;2022-12-18T16:09:34;4.32;;;1.88;;
44169;SDS011;29836;52.286;9.576;2022-12-18T16:12:00;2.45;;;1.15;;
44169;SDS011;29836;52.286;9.576;2022-12-18T16:14:28;2.45;;;1.25;;
44169;SDS011;29836;52.286;9.576;2022-12-18T16:16:55;6.82;;;1.90;;
44169;SDS011;29836;52.286;9.576;2022-12-18T16:19:26;6.32;;;1.90;;
44169;SDS011;29836;52.286;9.576;2022-12-18T16:21:52;4.20;;;2.00;;
44169;SDS011;29836;52.286;9.576;2022-12-18T16:24:20;4.32;;;1.80;;
44169;SDS011;29836;52.286;9.576;2022-12-18T16:26:48;5.90;;;1.80;;
44169;SDS011;29836;52.286;9.576;2022-12-18T16:29:14;2.72;;;1.55;;
44169;SDS011;29836;52.286;9.576;2022-12-18T16:31:40;3.90;;;1.45;;
44169;SDS011;29836;52.286;9.576;2022-12-18T16:34:09;2.90;;;1.75;;
44169;SDS011;29836;52.286;9.576;2022-12-18T16:36:43;4.35;;;1.60;;
44169;SDS011;29836;52.286;9.576;2022-12-18T16:39:08;5.53;;;2.78;;
44169;SDS011;29836;52.286;9.576;2022-12-18T16:41:34;4.55;;;2.15;;
44169;SDS011;29836;52.286;9.576;2022-12-18T16:44:00;3.92;;;1.80;;
44169;SDS011;29836;52.286;9.576;2022-12-18T16:46:26;4.82;;;2.42;;
44169;SDS011;29836;52.286;9.576;2022-12-18T16:48:51;6.20;;;2.35;;
44169;SDS011;29836;52.286;9.576;2022-12-18T16:51:17;10.52;;;1.85;;
44169;SDS011;29836;52.286;9.576;2022-12-18T16:53:43;5.03;;;1.85;;
44169;SDS011;29836;52.286;9.576;2022-12-18T16:56:08;3.08;;;1.73;;
44169;SDS011;29836;52.286;9.576;2022-12-18T16:58:34;2.63;;;1.80;;
44169;SDS011;29836;52.286;9.576;2022-12-18T17:01:00;4.95;;;1.63;;
44169;SDS011;29836;52.286;9.576;2022-12-18T17:03:31;5.95;;;2.50;;